• Join FlightAware (Why Join?)
  • Login
  • US Flag 
09:02AM EDT


 

Airport Tracker/Info


-or-


 

Live Flight TrackerFlight Track Log ✈ SWA726 ✈ 02-May-2013 ✈ KAUS - KELP

Flight Track Log - Related Links

Times and Time Zones

All times are in EDT time to prevent confusion due to time zone crossing. See the SWA726 flight status page for this flight to view local times or setup timezone preferences in your user account.

Time Position Orientation Groundspeed Altitude Reporting Facility
EDT Latitude Longitude Course Direction KTS MPH feet Rate Location/Type
01:41PM 30.2086 -97.6786 323° Northwest 144 166 36,000  Level Houston Center
01:42PM 30.2419 -97.7072 323° Northwest 236 272 3,400 -14,760 Descending Houston Center
01:43PM 30.2531 -97.7853 279° West 243 280 5,500 3,180 Climbing Houston Center
01:44PM 30.2692 -97.8825 281° West 264 304 10,000 3,660 Climbing Houston Center
01:45PM 30.2839 -97.9658 282° West 265 305 13,100 2,280 Climbing Houston Center
01:46PM 30.3056 -98.0694 284° West 311 358 14,800 2,220 Climbing Houston Center
01:47PM 30.3292 -98.1794 284° West 346 398 17,800 2,220 Climbing Houston Center
01:48PM 30.3517 -98.2944 283° West 361 415 19,400 1,920 Climbing Houston Center
01:49PM 30.3778 -98.4178 284° West 384 442 21,800 2,040 Climbing Houston Center
01:50PM 30.4028 -98.5431 283° West 394 453 23,700 1,920 Climbing Houston Center
01:51PM 30.4281 -98.6725 283° West 405 466 25,800 1,860 Climbing Houston Center
01:53PM 30.4544 -98.8014 283° West 406 467 27,600 1,500 Climbing Houston Center
01:54PM 30.4869 -98.9586 284° West 426 490 29,000 1,800 Climbing Houston Center
01:55PM 30.5142 -99.0928 283° West 423 487 31,400 1,440 Climbing Houston Center
01:56PM 30.5383 -99.2117 283° West 410 472 32,000 1,260 Climbing Houston Center
01:57PM 30.5625 -99.3381 283° West 405 466 34,100 1,620 Climbing Houston Center
01:58PM 30.5903 -99.4786 283° West 379 436 35,400 900 Climbing Houston Center
01:59PM 30.6133 -99.5994 283° West 384 442 36,000 240 Climbing Houston Center
02:00PM 30.6369 -99.7228 283° West 392 451 36,000  Level Houston Center
02:01PM 30.6608 -99.8444 283° West 391 450 36,000  Level Houston Center
02:02PM 30.6836 -99.9658 282° West 389 448 36,000  Level Houston Center
02:03PM 30.7108 -100.1122 282° West 385 443 36,000  Level Houston Center
02:04PM 30.7339 -100.2303 283° West 383 441 36,000  Level Houston Center
02:05PM 30.7564 -100.3517 282° West 388 447 36,000  Level Houston Center
02:06PM 30.7797 -100.4703 283° West 381 438 36,000  Level Houston Center
02:07PM 30.8017 -100.5919 282° West 386 444 36,000  Level Houston Center
02:08PM 30.8275 -100.7350 282° West 381 438 36,000  Level Houston Center
02:09PM 30.8503 -100.8533 283° West 377 434 36,000  Level Houston Center
02:10PM 30.8703 -100.9747 281° West 380 437 36,000  Level Houston Center
02:11PM 30.8931 -101.0925 283° West 377 434 36,000  Level Houston Center
02:12PM 30.9156 -101.2092 283° West 372 428 36,000  Level Houston Center
02:13PM 30.9372 -101.3347 281° West 375 432 36,000  Level Houston Center
02:14PM 30.9572 -101.4525 281° West 375 432 36,000  Level Albuquerque Center
02:15PM 30.9789 -101.5706 282° West 374 430 36,000  Level Albuquerque Center
02:16PM 30.9994 -101.6900 281° West 374 430 36,000  Level Albuquerque Center
02:17PM 31.0242 -101.8319 282° West 373 429 36,000  Level Albuquerque Center
02:18PM 31.0422 -101.9386 281° West 378 435 36,000  Level Albuquerque Center
02:19PM 31.0631 -102.0589 281° West 379 436 36,000  Level Albuquerque Center
02:20PM 31.0833 -102.1756 282° West 372 428 36,000  Level Albuquerque Center
02:21PM 31.1078 -102.3178 281° West 371 427 36,000  Level Albuquerque Center
02:22PM 31.1281 -102.4347 281° West 370 426 36,000 -300 Level Albuquerque Center
02:23PM 31.1464 -102.5492 281° West 368 423 35,400 -780 Descending Albuquerque Center
02:24PM 31.1661 -102.6669 281° West 367 422 34,400 -720 Descending Albuquerque Center
02:26PM 31.1869 -102.7878 281° West 374 430 34,000 -240 Descending Albuquerque Center
02:27PM 31.2067 -102.9111 281° West 382 440 34,000  Level Albuquerque Center
02:28PM 31.2319 -103.0594 281° West 388 447 34,000  Level Albuquerque Center
02:29PM 31.2517 -103.1847 280° West 389 448 34,000  Level Albuquerque Center
02:30PM 31.2719 -103.3086 281° West 390 449 34,000  Level Albuquerque Center
02:31PM 31.2914 -103.4308 281° West 385 443 34,000  Level Albuquerque Center
02:32PM 31.3100 -103.5522 280° West 382 440 34,000  Level Albuquerque Center
02:33PM 31.3322 -103.6753 282° West 385 443 34,000  Level Albuquerque Center
02:34PM 31.3511 -103.8050 280° West 382 440 34,000  Level Albuquerque Center
02:35PM 31.3706 -103.9253 281° West 379 436 34,000  Level Albuquerque Center
02:36PM 31.3914 -104.0481 281° West 383 441 34,000  Level Albuquerque Center
02:37PM 31.4092 -104.1683 280° West 380 437 34,000  Level Albuquerque Center
02:38PM 31.4308 -104.3128 280° West 377 434 34,000  Level Albuquerque Center
02:39PM 31.4489 -104.4331 280° West 377 434 34,000  Level Albuquerque Center
02:40PM 31.4636 -104.5550 278° West 380 437 34,000 -180 Level Albuquerque Center
02:41PM 31.4758 -104.6761 277° West 378 435 33,700 -1,440 Descending Albuquerque Center
02:42PM 31.4889 -104.8014 277° West 386 444 31,100 -2,460 Descending Albuquerque Center
02:43PM 31.5028 -104.9308 277° West 399 459 28,700 -2,640 Descending Albuquerque Center
02:44PM 31.5189 -105.0892 277° West 408 470 25,800 -2,640 Descending Albuquerque Center
02:45PM 31.5317 -105.2181 277° West 405 466 23,400 -2,280 Descending Albuquerque Center
02:46PM 31.5442 -105.3383 277° West 380 437 21,200 -2,100 Descending Albuquerque Center
02:47PM 31.5539 -105.4497 276° West 347 399 19,100 -2,100 Descending Albuquerque Center
02:48PM 31.5606 -105.5122 277° West 329 379 18,100 -1,680 Descending Albuquerque Center
02:48PM 31.5650 -105.5553 277° West 331 381 17,400 -2,280 Descending Albuquerque Center
02:49PM 31.5681 -105.6203 273° West 337 388 15,800 -2,460 Descending Albuquerque Center
02:49PM 31.5744 -105.6661 279° West 340 391 14,900 -1,920 Descending Albuquerque Center
02:50PM 31.5794 -105.7269 276° West 333 383 13,900 -2,160 Descending Albuquerque Center
02:50PM 31.5869 -105.7900 278° West 322 371 12,700 -2,100 Descending Albuquerque Center
02:51PM 31.6036 -105.8333 294° West 313 360 11,800 -1,860 Descending Albuquerque Center
02:51PM 31.6219 -105.8814 294° West 306 352 10,800 -1,500 Descending Albuquerque Center
02:52PM 31.6256 -105.9275 275° West 299 344 10,300 -1,080 Descending Albuquerque Center
02:52PM 31.6308 -105.9775 277° West 296 341 9,700 -1,020 Descending Albuquerque Center
02:53PM 31.6361 -106.0197 278° West 283 326 9,300 -1,020 Descending Albuquerque Center
02:53PM 31.6422 -106.0683 278° West 286 329 8,700 -1,020 Descending Albuquerque Center
02:54PM 31.6467 -106.1119 277° West 282 325 8,300 -1,020 Descending Albuquerque Center
02:54PM 31.6525 -106.1586 278° West 280 322 7,700 -1,020 Descending Albuquerque Center
02:55PM 31.6572 -106.2042 277° West 282 325 7,300 -900 Descending Albuquerque Center
02:55PM 31.6631 -106.2508 278° West 285 328 6,800 -1,020 Descending Albuquerque Center
02:56PM 31.6717 -106.2956 283° West 285 328 6,300 -900 Descending Albuquerque Center
02:56PM 31.7050 -106.3397 312° West 257 296 5,900 -300 Descending Albuquerque Center
02:57PM 31.7192 -106.3561 315° West 241 277 6,000  Climbing Albuquerque Center
02:57PM 31.7475 -106.3931 312° West 219 252 5,900 -300 Descending Albuquerque Center
02:58PM 31.7544 -106.4097 296° West 182 209 5,700 -1,200 Descending Albuquerque Center
02:58PM 31.7747 -106.4319 317° Northwest 164 189 4,700 -1,140 Descending Albuquerque Center
02:59PM 31.7828 -106.4250 36° Northeast 127 146 4,600 240 Descending Albuquerque Center
03:00PM 31.8033 -106.3964 50° Northeast 158 182 5,000 480 Climbing Albuquerque Center
03:01PM 31.8319 -106.3383 60° Northeast 217 250 5,500 240 Climbing Albuquerque Center
03:02PM 31.7803 -106.3061 152° Southeast 234 269 5,500 -60 Level Albuquerque Center
03:03PM 31.7650 -106.3908 258° West 228 262 5,400 -180 Descending Albuquerque Center
03:04PM 31.7769 -106.4408 286° West 176 203 5,200 -540 Descending Albuquerque Center
03:05PM 31.8036 -106.4147 40° Northeast 142 163 4,300 -660 Descending Albuquerque Center
03:06PM 31.8017 -106.3717 93° East 144 166 3,900 -420 Descending Albuquerque Center